DISPA EDSB-EDRY
Flight info
| Callsign | DISPA |
|---|---|
| Flight time | 0h 24m |
| Altitude | 4000 |
| Route | VP060 DCT 4858N00826E DCT 4906N00833E |
| Aircraft | BE58/L-SDFGRY/C |
Departure
| Time | 2026-05-06 14:58 |
|---|---|
| Airport | Karlsruhe Baden-Baden Airport (EDSB) |
Arrival
| Time | 2026-05-06 15:23 |
|---|---|
| Airport | Speyer Airfield (EDRY) |
| Time | Latitude | Longitude | Altitude | Speed | Heading |
|---|---|---|---|---|---|
| 2026-05-06 14:45 | 48.76921 | 8.07802 | 407 ft | 0 kts | 302° |
| 2026-05-06 14:49 | 48.76925 | 8.07792 | 407 ft | 6 kts | 307° |
| 2026-05-06 14:49 | 48.77003 | 8.07832 | 407 ft | 16 kts | 39° |
| 2026-05-06 14:50 | 48.77092 | 8.07860 | 407 ft | 15 kts | 2° |
| 2026-05-06 14:50 | 48.77212 | 8.07882 | 407 ft | 19 kts | 29° |
| 2026-05-06 14:50 | 48.77334 | 8.07995 | 407 ft | 22 kts | 31° |
| 2026-05-06 14:50 | 48.77418 | 8.08007 | 407 ft | 11 kts | 302° |
| 2026-05-06 14:51 | 48.77471 | 8.07920 | 407 ft | 13 kts | 356° |
| 2026-05-06 14:51 | 48.77560 | 8.07977 | 407 ft | 15 kts | 24° |
| 2026-05-06 14:51 | 48.77654 | 8.08066 | 407 ft | 17 kts | 32° |
| 2026-05-06 14:51 | 48.77756 | 8.08173 | 407 ft | 18 kts | 33° |
| 2026-05-06 14:52 | 48.77868 | 8.08278 | 407 ft | 20 kts | 34° |
| 2026-05-06 14:52 | 48.77987 | 8.08389 | 407 ft | 20 kts | 31° |
| 2026-05-06 14:52 | 48.78108 | 8.08508 | 407 ft | 21 kts | 30° |
| 2026-05-06 14:52 | 48.78239 | 8.08617 | 407 ft | 22 kts | 27° |
| 2026-05-06 14:53 | 48.78369 | 8.08734 | 407 ft | 22 kts | 39° |
| 2026-05-06 14:53 | 48.78495 | 8.08870 | 407 ft | 22 kts | 32° |
| 2026-05-06 14:53 | 48.78631 | 8.08990 | 407 ft | 23 kts | 30° |
| 2026-05-06 14:53 | 48.78765 | 8.09115 | 407 ft | 23 kts | 35° |
| 2026-05-06 14:54 | 48.78868 | 8.09218 | 407 ft | 0 kts | 31° |
| 2026-05-06 14:55 | 48.78868 | 8.09219 | 407 ft | 0 kts | 31° |
| 2026-05-06 14:55 | 48.78868 | 8.09218 | 407 ft | 0 kts | 31° |
| 2026-05-06 14:56 | 48.78868 | 8.09219 | 407 ft | 0 kts | 31° |
| 2026-05-06 14:56 | 48.78872 | 8.09222 | 407 ft | 4 kts | 32° |
| 2026-05-06 14:57 | 48.78942 | 8.09286 | 407 ft | 17 kts | 31° |
| 2026-05-06 14:57 | 48.79038 | 8.09207 | 407 ft | 20 kts | 302° |
| 2026-05-06 14:57 | 48.79020 | 8.09070 | 407 ft | 16 kts | 213° |
| 2026-05-06 14:57 | 48.78733 | 8.08793 | 409 ft | 92 kts | 211° |
| 2026-05-06 14:58 | 48.78067 | 8.08163 | 563 ft | 130 kts | 213° |
| 2026-05-06 14:58 | 48.77223 | 8.07414 | 730 ft | 148 kts | 206° |
| 2026-05-06 14:58 | 48.76265 | 8.06660 | 880 ft | 158 kts | 208° |
| 2026-05-06 14:58 | 48.75248 | 8.06202 | 1080 ft | 157 kts | 176° |
| 2026-05-06 14:59 | 48.74391 | 8.07043 | 1428 ft | 145 kts | 120° |
| 2026-05-06 14:59 | 48.73990 | 8.08378 | 1800 ft | 144 kts | 113° |
| 2026-05-06 14:59 | 48.73706 | 8.09820 | 2073 ft | 144 kts | 90° |
| 2026-05-06 14:59 | 48.74041 | 8.11249 | 2263 ft | 149 kts | 52° |
| 2026-05-06 15:00 | 48.74731 | 8.12370 | 2601 ft | 141 kts | 50° |
| 2026-05-06 15:00 | 48.75196 | 8.13710 | 2786 ft | 148 kts | 69° |
| 2026-05-06 15:00 | 48.75722 | 8.15024 | 2982 ft | 148 kts | 41° |
| 2026-05-06 15:00 | 48.76629 | 8.16079 | 2680 ft | 172 kts | 34° |
| 2026-05-06 15:01 | 48.77612 | 8.17147 | 2388 ft | 184 kts | 37° |
| 2026-05-06 15:01 | 48.78602 | 8.18257 | 2473 ft | 170 kts | 38° |
| 2026-05-06 15:01 | 48.79513 | 8.19401 | 2341 ft | 175 kts | 38° |
| 2026-05-06 15:01 | 48.80466 | 8.20504 | 2346 ft | 168 kts | 37° |
| 2026-05-06 15:02 | 48.81378 | 8.21547 | 2431 ft | 161 kts | 37° |
| 2026-05-06 15:02 | 48.82267 | 8.22572 | 2472 ft | 161 kts | 37° |
| 2026-05-06 15:02 | 48.83159 | 8.23602 | 2479 ft | 161 kts | 37° |
| 2026-05-06 15:02 | 48.84056 | 8.24636 | 2475 ft | 163 kts | 37° |
| 2026-05-06 15:03 | 48.84957 | 8.25683 | 2474 ft | 163 kts | 37° |
| 2026-05-06 15:03 | 48.85862 | 8.26729 | 2473 ft | 164 kts | 36° |
| 2026-05-06 15:03 | 48.86768 | 8.27768 | 2470 ft | 163 kts | 36° |
| 2026-05-06 15:03 | 48.87668 | 8.28803 | 2469 ft | 162 kts | 36° |
| 2026-05-06 15:04 | 48.88532 | 8.29895 | 2473 ft | 163 kts | 41° |
| 2026-05-06 15:04 | 48.89348 | 8.31096 | 2472 ft | 164 kts | 44° |
| 2026-05-06 15:04 | 48.90152 | 8.32323 | 2473 ft | 164 kts | 44° |
| 2026-05-06 15:04 | 48.90958 | 8.33553 | 2471 ft | 164 kts | 44° |
| 2026-05-06 15:05 | 48.91759 | 8.34777 | 2471 ft | 163 kts | 44° |
| 2026-05-06 15:05 | 48.92558 | 8.35996 | 2469 ft | 162 kts | 44° |
| 2026-05-06 15:05 | 48.93354 | 8.37213 | 2473 ft | 163 kts | 44° |
| 2026-05-06 15:05 | 48.94151 | 8.38438 | 2471 ft | 163 kts | 44° |
| 2026-05-06 15:06 | 48.94956 | 8.39667 | 2473 ft | 164 kts | 44° |
| 2026-05-06 15:06 | 48.95756 | 8.40893 | 2469 ft | 163 kts | 44° |
| 2026-05-06 15:06 | 48.96566 | 8.42098 | 2474 ft | 164 kts | 40° |
| 2026-05-06 15:06 | 48.97485 | 8.43117 | 2469 ft | 163 kts | 33° |
| 2026-05-06 15:07 | 48.98432 | 8.44059 | 2474 ft | 163 kts | 32° |
| 2026-05-06 15:07 | 48.99379 | 8.45003 | 2469 ft | 162 kts | 33° |
| 2026-05-06 15:07 | 49.00320 | 8.45948 | 2468 ft | 160 kts | 32° |
| 2026-05-06 15:07 | 49.01237 | 8.46829 | 2464 ft | 157 kts | 30° |
| 2026-05-06 15:08 | 49.02186 | 8.47676 | 2463 ft | 155 kts | 30° |
| 2026-05-06 15:08 | 49.03114 | 8.48505 | 2460 ft | 154 kts | 29° |
| 2026-05-06 15:08 | 49.04034 | 8.49325 | 2460 ft | 154 kts | 29° |
| 2026-05-06 15:08 | 49.04942 | 8.50135 | 2460 ft | 152 kts | 29° |
| 2026-05-06 15:09 | 49.05858 | 8.50954 | 2458 ft | 153 kts | 29° |
| 2026-05-06 15:09 | 49.06782 | 8.51779 | 2455 ft | 154 kts | 30° |
| 2026-05-06 15:09 | 49.07701 | 8.52601 | 2453 ft | 152 kts | 30° |
| 2026-05-06 15:09 | 49.08612 | 8.53411 | 2448 ft | 151 kts | 29° |
| 2026-05-06 15:10 | 49.09518 | 8.54220 | 2450 ft | 152 kts | 28° |
| 2026-05-06 15:10 | 49.10498 | 8.54714 | 2442 ft | 149 kts | 359° |
| 2026-05-06 15:10 | 49.11530 | 8.54620 | 2442 ft | 148 kts | 353° |
| 2026-05-06 15:10 | 49.12521 | 8.54224 | 2448 ft | 147 kts | 341° |
| 2026-05-06 15:11 | 49.13501 | 8.53753 | 2446 ft | 148 kts | 341° |
| 2026-05-06 15:11 | 49.14492 | 8.53374 | 2446 ft | 146 kts | 348° |
| 2026-05-06 15:11 | 49.15481 | 8.53068 | 2437 ft | 144 kts | 347° |
| 2026-05-06 15:11 | 49.16467 | 8.52939 | 2434 ft | 142 kts | 4° |
| 2026-05-06 15:12 | 49.17313 | 8.53073 | 2436 ft | 143 kts | 5° |
| 2026-05-06 15:15 | 49.17949 | 8.53171 | 2432 ft | 143 kts | 5° |
| 2026-05-06 15:15 | 49.18940 | 8.53317 | 2372 ft | 148 kts | 4° |
| 2026-05-06 15:15 | 49.20000 | 8.53473 | 2206 ft | 157 kts | 4° |
| 2026-05-06 15:15 | 49.21097 | 8.53633 | 2042 ft | 159 kts | 5° |
| 2026-05-06 15:16 | 49.22206 | 8.53797 | 1875 ft | 161 kts | 5° |
| 2026-05-06 15:16 | 49.23324 | 8.53960 | 1708 ft | 162 kts | 4° |
| 2026-05-06 15:16 | 49.24436 | 8.54120 | 1540 ft | 163 kts | 4° |
| 2026-05-06 15:16 | 49.25553 | 8.54280 | 1488 ft | 158 kts | 4° |
| 2026-05-06 15:17 | 49.26623 | 8.54411 | 1479 ft | 151 kts | 1° |
| 2026-05-06 15:17 | 49.27659 | 8.54390 | 1476 ft | 147 kts | 358° |
| 2026-05-06 15:17 | 49.28670 | 8.54274 | 1471 ft | 144 kts | 353° |
| 2026-05-06 15:17 | 49.29667 | 8.54097 | 1478 ft | 144 kts | 349° |
| 2026-05-06 15:18 | 49.30644 | 8.53773 | 1472 ft | 144 kts | 347° |
| 2026-05-06 15:18 | 49.31618 | 8.53441 | 1467 ft | 143 kts | 346° |
| 2026-05-06 15:18 | 49.32584 | 8.53110 | 1478 ft | 142 kts | 346° |
| 2026-05-06 15:18 | 49.33550 | 8.52778 | 1473 ft | 143 kts | 347° |
| 2026-05-06 15:19 | 49.34522 | 8.52448 | 1475 ft | 143 kts | 346° |
| 2026-05-06 15:19 | 49.35486 | 8.52123 | 1473 ft | 141 kts | 347° |
| 2026-05-06 15:19 | 49.36431 | 8.51735 | 1383 ft | 142 kts | 333° |
| 2026-05-06 15:19 | 49.37013 | 8.50601 | 1334 ft | 133 kts | 287° |
| 2026-05-06 15:20 | 49.37177 | 8.49714 | 1331 ft | 126 kts | 285° |
| 2026-05-06 15:20 | 49.37324 | 8.48478 | 1326 ft | 108 kts | 270° |
| 2026-05-06 15:20 | 49.37143 | 8.47380 | 1308 ft | 105 kts | 242° |
| 2026-05-06 15:20 | 49.36620 | 8.46603 | 1254 ft | 112 kts | 208° |
| 2026-05-06 15:21 | 49.35935 | 8.45994 | 1155 ft | 117 kts | 214° |
| 2026-05-06 15:21 | 49.35251 | 8.45349 | 1145 ft | 113 kts | 212° |
| 2026-05-06 15:21 | 49.34581 | 8.44739 | 1119 ft | 112 kts | 212° |
| 2026-05-06 15:21 | 49.33902 | 8.44164 | 1082 ft | 111 kts | 210° |
| 2026-05-06 15:22 | 49.33139 | 8.43980 | 941 ft | 120 kts | 168° |
| 2026-05-06 15:22 | 49.32339 | 8.44419 | 675 ft | 119 kts | 162° |
| 2026-05-06 15:22 | 49.31646 | 8.44717 | 492 ft | 90 kts | 165° |
| 2026-05-06 15:22 | 49.31049 | 8.44953 | 394 ft | 93 kts | 167° |
| 2026-05-06 15:23 | 49.30420 | 8.45203 | 312 ft | 84 kts | 166° |
| 2026-05-06 15:23 | 49.30025 | 8.45358 | 319 ft | 25 kts | 163° |
| 2026-05-06 15:23 | 49.29960 | 8.45442 | 319 ft | 13 kts | 51° |
| 2026-05-06 15:23 | 49.29967 | 8.45456 | 319 ft | 1 kts | 52° |
| 2026-05-06 15:24 | 49.29971 | 8.45463 | 318 ft | 0 kts | 46° |
| 2026-05-06 15:24 | 49.29987 | 8.45490 | 318 ft | 7 kts | 29° |
| 2026-05-06 15:24 | 49.30054 | 8.45472 | 317 ft | 13 kts | 346° |
| 2026-05-06 15:24 | 49.30157 | 8.45429 | 316 ft | 18 kts | 347° |
| 2026-05-06 15:25 | 49.30272 | 8.45382 | 312 ft | 13 kts | 349° |
| 2026-05-06 15:25 | 49.30313 | 8.45429 | 312 ft | 8 kts | 255° |
| 2026-05-06 15:25 | 49.30308 | 8.45408 | 311 ft | 0 kts | 256° |